createdAt,value
2018-03-26T00:00:22.231Z,1008.28
2018-03-26T00:01:22.202Z,1008.27
2018-03-26T00:02:22.173Z,1008.27
2018-03-26T00:03:22.145Z,1008.24
2018-03-26T00:04:22.117Z,1008.20
2018-03-26T00:05:22.090Z,1008.21
2018-03-26T00:06:22.060Z,1008.26
2018-03-26T00:07:22.031Z,1008.24
2018-03-26T00:08:22.004Z,1008.25
2018-03-26T00:09:21.973Z,1008.26
2018-03-26T00:10:21.947Z,1008.30
2018-03-26T00:11:21.919Z,1008.25
2018-03-26T00:12:21.888Z,1008.29
2018-03-26T00:13:21.858Z,1008.28
2018-03-26T00:14:21.832Z,1008.29
2018-03-26T00:15:21.802Z,1008.30
2018-03-26T00:16:21.772Z,1008.27
2018-03-26T00:17:21.744Z,1008.30
2018-03-26T00:18:21.716Z,1008.28
2018-03-26T00:19:21.693Z,1008.28
2018-03-26T00:20:21.659Z,1008.28
2018-03-26T00:21:21.630Z,1008.32
2018-03-26T00:22:21.601Z,1008.28
2018-03-26T00:23:21.572Z,1008.28
2018-03-26T00:24:21.544Z,1008.25
2018-03-26T00:25:21.517Z,1008.28
2018-03-26T00:26:21.488Z,1008.27
2018-03-26T00:27:21.458Z,1008.28
2018-03-26T00:28:21.429Z,1008.28
2018-03-26T00:29:21.400Z,1008.26
2018-03-26T00:30:21.373Z,1008.29
2018-03-26T00:31:21.342Z,1008.21
2018-03-26T00:32:21.315Z,1008.24
2018-03-26T00:33:21.285Z,1008.26
2018-03-26T00:34:21.256Z,1008.19
2018-03-26T00:35:21.227Z,1008.24
2018-03-26T00:36:21.199Z,1008.21
2018-03-26T00:37:21.169Z,1008.22
2018-03-26T00:38:21.141Z,1008.20
2018-03-26T00:39:21.113Z,1008.19
2018-03-26T00:40:21.084Z,1008.21
2018-03-26T00:41:21.058Z,1008.23
2018-03-26T00:42:21.028Z,1008.20
2018-03-26T00:43:20.998Z,1008.25
2018-03-26T00:44:20.968Z,1008.25
2018-03-26T00:45:20.939Z,1008.27
2018-03-26T00:46:20.911Z,1008.30
2018-03-26T00:47:20.881Z,1008.29
2018-03-26T00:48:20.854Z,1008.30
2018-03-26T00:49:20.824Z,1008.34
2018-03-26T00:50:20.799Z,1008.31
2018-03-26T00:51:20.766Z,1008.31
2018-03-26T00:52:20.746Z,1008.31
2018-03-26T00:53:20.711Z,1008.32
2018-03-26T00:54:20.681Z,1008.31
2018-03-26T00:55:20.651Z,1008.26
2018-03-26T00:56:20.623Z,1008.26
2018-03-26T00:57:20.593Z,1008.28
2018-03-26T00:58:20.564Z,1008.25
2018-03-26T00:59:20.538Z,1008.23
2018-03-26T01:00:20.520Z,1008.26
2018-03-26T01:01:20.478Z,1008.23
2018-03-26T01:02:20.449Z,1008.23
2018-03-26T01:03:20.423Z,1008.24
2018-03-26T01:04:20.396Z,1008.20
2018-03-26T01:05:20.363Z,1008.33
2018-03-26T01:06:20.336Z,1008.26
2018-03-26T01:07:20.313Z,1008.33
2018-03-26T01:08:20.278Z,1008.33
2018-03-26T01:09:20.249Z,1008.34
2018-03-26T01:10:20.219Z,1008.34
2018-03-26T01:11:20.191Z,1008.34
2018-03-26T01:12:20.162Z,1008.37
2018-03-26T01:13:20.141Z,1008.34
2018-03-26T01:14:20.104Z,1008.39
2018-03-26T01:15:20.075Z,1008.43
2018-03-26T01:16:20.047Z,1008.46
2018-03-26T01:17:20.017Z,1008.47
2018-03-26T01:18:19.991Z,1008.48
2018-03-26T01:19:19.960Z,1008.47
2018-03-26T01:20:19.932Z,1008.46
2018-03-26T01:21:19.901Z,1008.51
2018-03-26T01:22:19.873Z,1008.54
2018-03-26T01:23:19.846Z,1008.55
2018-03-26T01:24:19.815Z,1008.51
2018-03-26T01:25:19.787Z,1008.53
2018-03-26T01:26:19.757Z,1008.54
2018-03-26T01:27:19.728Z,1008.53
2018-03-26T01:28:19.699Z,1008.50
2018-03-26T01:29:19.671Z,1008.51
2018-03-26T01:30:19.651Z,1008.50
2018-03-26T01:31:19.617Z,1008.52
2018-03-26T01:32:19.585Z,1008.48
2018-03-26T01:33:19.554Z,1008.57
2018-03-26T01:34:19.527Z,1008.56
2018-03-26T01:35:19.499Z,1008.58
2018-03-26T01:36:19.488Z,1008.54
2018-03-26T01:37:19.439Z,1008.60
2018-03-26T01:38:19.412Z,1008.56
2018-03-26T01:39:19.381Z,1008.54
2018-03-26T01:40:19.355Z,1008.57
2018-03-26T01:41:19.328Z,1008.59
2018-03-26T01:42:19.295Z,1008.62
2018-03-26T01:43:19.267Z,1008.64
2018-03-26T01:44:19.238Z,1008.52
2018-03-26T01:45:19.211Z,1008.61
2018-03-26T01:46:19.181Z,1008.63
2018-03-26T01:47:19.152Z,1008.61
2018-03-26T01:48:19.122Z,1008.54
2018-03-26T01:49:19.094Z,1008.59
2018-03-26T01:50:19.064Z,1008.57
2018-03-26T01:51:19.035Z,1008.62
2018-03-26T01:52:19.006Z,1008.59
2018-03-26T01:53:18.982Z,1008.60
2018-03-26T01:54:18.947Z,1008.61
2018-03-26T01:55:18.918Z,1008.58
2018-03-26T01:56:18.890Z,1008.67
2018-03-26T01:57:18.860Z,1008.59
2018-03-26T01:58:18.831Z,1008.67
2018-03-26T01:59:18.803Z,1008.62
2018-03-26T02:00:18.776Z,1008.61
2018-03-26T02:01:18.748Z,1008.62
2018-03-26T02:02:18.715Z,1008.67
2018-03-26T02:03:18.691Z,1008.65
2018-03-26T02:04:18.657Z,1008.65
2018-03-26T02:05:18.630Z,1008.67
2018-03-26T02:06:18.598Z,1008.69
2018-03-26T02:07:18.569Z,1008.66
2018-03-26T02:08:18.541Z,1008.64
2018-03-26T02:09:18.513Z,1008.68
2018-03-26T02:10:18.481Z,1008.64
2018-03-26T02:11:18.453Z,1008.68
2018-03-26T02:12:18.424Z,1008.71
2018-03-26T02:13:18.394Z,1008.69
2018-03-26T02:14:18.365Z,1008.70
2018-03-26T02:15:18.337Z,1008.70
2018-03-26T02:16:18.310Z,1008.73
2018-03-26T02:17:18.278Z,1008.79
2018-03-26T02:18:18.249Z,1008.79
2018-03-26T02:19:18.220Z,1008.77
2018-03-26T02:20:18.200Z,1008.75
2018-03-26T02:21:18.161Z,1008.78
2018-03-26T02:22:18.132Z,1008.79
2018-03-26T02:23:18.104Z,1008.81
2018-03-26T02:24:18.076Z,1008.81
2018-03-26T02:25:18.046Z,1008.82
2018-03-26T02:26:18.016Z,1008.83
2018-03-26T02:27:17.992Z,1008.82
2018-03-26T02:28:17.963Z,1008.86
2018-03-26T02:29:17.928Z,1008.81
2018-03-26T02:30:17.906Z,1008.82
2018-03-26T02:31:17.875Z,1008.82
2018-03-26T02:32:17.843Z,1008.83
2018-03-26T02:33:17.811Z,1008.87
2018-03-26T02:34:17.782Z,1008.87
2018-03-26T02:35:17.757Z,1008.89
2018-03-26T02:36:17.724Z,1008.91
2018-03-26T02:37:17.695Z,1008.90
2018-03-26T02:38:17.674Z,1008.92
2018-03-26T02:39:17.840Z,1008.93
2018-03-26T02:40:17.812Z,1008.91
2018-03-26T02:41:17.577Z,1008.93
2018-03-26T02:42:17.549Z,1008.92
2018-03-26T02:43:17.723Z,1008.88
2018-03-26T02:44:17.694Z,1008.88
2018-03-26T02:45:17.459Z,1008.92
2018-03-26T02:46:17.431Z,1008.90
2018-03-26T02:47:17.403Z,1008.90
2018-03-26T02:48:17.372Z,1008.96
2018-03-26T02:49:17.545Z,1008.98
2018-03-26T02:50:17.313Z,1009.02
2018-03-26T02:51:17.293Z,1008.96
2018-03-26T02:52:17.254Z,1009.02
2018-03-26T02:53:17.226Z,1008.99
2018-03-26T02:54:17.195Z,1008.98
2018-03-26T02:55:17.186Z,1009.01
2018-03-26T02:56:17.137Z,1009.02
2018-03-26T02:57:17.113Z,1009.00
2018-03-26T02:58:17.077Z,1008.99
2018-03-26T02:59:17.056Z,1009.05
2018-03-26T03:00:17.021Z,1009.05
2018-03-26T03:01:16.991Z,1009.08
2018-03-26T03:02:16.961Z,1009.05
2018-03-26T03:03:16.931Z,1009.07
2018-03-26T03:04:16.901Z,1009.07
2018-03-26T03:05:16.885Z,1009.10
2018-03-26T03:06:16.844Z,1009.15
2018-03-26T03:07:16.813Z,1009.12
2018-03-26T03:08:16.782Z,1009.11
2018-03-26T03:09:16.751Z,1009.13
2018-03-26T03:10:16.723Z,1009.15
2018-03-26T03:11:16.701Z,1009.17
2018-03-26T03:12:16.668Z,1009.19
2018-03-26T03:13:16.633Z,1009.20
2018-03-26T03:14:16.604Z,1009.18
2018-03-26T03:15:16.579Z,1009.15
2018-03-26T03:16:16.546Z,1009.18
2018-03-26T03:17:16.519Z,1009.17
2018-03-26T03:18:16.497Z,1009.14
2018-03-26T03:19:16.456Z,1009.16
2018-03-26T03:20:16.427Z,1009.15
2018-03-26T03:21:16.396Z,1009.18
2018-03-26T03:22:16.375Z,1009.18
2018-03-26T03:23:16.342Z,1009.18
2018-03-26T03:24:16.308Z,1009.22
2018-03-26T03:25:16.279Z,1009.18
2018-03-26T03:26:16.249Z,1009.21
2018-03-26T03:27:16.220Z,1009.21
2018-03-26T03:28:16.191Z,1009.27
2018-03-26T03:29:16.162Z,1009.25
2018-03-26T03:30:16.133Z,1009.20
2018-03-26T03:31:16.112Z,1009.23
2018-03-26T03:32:16.072Z,1009.27
2018-03-26T03:33:16.048Z,1009.29
2018-03-26T03:34:16.013Z,1009.29
2018-03-26T03:35:15.984Z,1009.35
2018-03-26T03:36:15.954Z,1009.32
2018-03-26T03:37:15.924Z,1009.33
2018-03-26T03:38:15.896Z,1009.28
2018-03-26T03:39:15.866Z,1009.30
2018-03-26T03:40:15.836Z,1009.36
2018-03-26T03:41:15.808Z,1009.38
2018-03-26T03:42:15.777Z,1009.45
2018-03-26T03:43:15.747Z,1009.51
2018-03-26T03:44:15.720Z,1009.45
2018-03-26T03:45:15.690Z,1009.49
2018-03-26T03:46:15.664Z,1009.47
2018-03-26T03:47:15.636Z,1009.48
2018-03-26T03:48:15.599Z,1009.44
2018-03-26T03:49:15.569Z,1009.46
2018-03-26T03:50:15.546Z,1009.48
2018-03-26T03:51:15.510Z,1009.45
2018-03-26T03:52:15.483Z,1009.47
2018-03-26T03:53:15.452Z,1009.45
2018-03-26T03:54:15.421Z,1009.41
2018-03-26T03:55:15.391Z,1009.45
2018-03-26T03:56:15.362Z,1009.42
2018-03-26T03:57:15.338Z,1009.44
2018-03-26T03:58:15.304Z,1009.47
2018-03-26T03:59:15.273Z,1009.44
2018-03-26T04:00:15.243Z,1009.46
2018-03-26T04:01:15.213Z,1009.43
2018-03-26T04:02:15.182Z,1009.48
2018-03-26T04:03:15.154Z,1009.42
2018-03-26T04:04:15.124Z,1009.39
2018-03-26T04:05:15.095Z,1009.40
2018-03-26T04:06:15.066Z,1009.45
2018-03-26T04:07:15.034Z,1009.41
2018-03-26T04:08:15.004Z,1009.50
2018-03-26T04:09:14.974Z,1009.50
2018-03-26T04:10:14.949Z,1009.47
2018-03-26T04:11:14.922Z,1009.49
2018-03-26T04:12:14.889Z,1009.47
2018-03-26T04:13:14.854Z,1009.46
2018-03-26T04:14:14.824Z,1009.48
2018-03-26T04:15:14.794Z,1009.45
2018-03-26T04:16:14.765Z,1009.50
2018-03-26T04:17:14.733Z,1009.53
2018-03-26T04:18:14.705Z,1009.53
2018-03-26T04:19:14.673Z,1009.57
2018-03-26T04:20:14.644Z,1009.56
2018-03-26T04:21:14.612Z,1009.56
2018-03-26T04:22:14.716Z,1009.55
2018-03-26T04:23:14.553Z,1009.55
2018-03-26T04:24:14.523Z,1009.58
2018-03-26T04:25:14.495Z,1009.61
2018-03-26T04:26:14.462Z,1009.58
2018-03-26T04:27:14.432Z,1009.59
2018-03-26T04:28:14.403Z,1009.53
2018-03-26T04:29:14.370Z,1009.57
2018-03-26T04:30:14.342Z,1009.60
2018-03-26T04:31:14.310Z,1009.53
2018-03-26T04:32:14.279Z,1009.55
2018-03-26T04:33:14.251Z,1009.62
2018-03-26T04:34:14.218Z,1009.61
2018-03-26T04:35:14.189Z,1009.67
2018-03-26T04:36:14.158Z,1009.73
2018-03-26T04:37:14.128Z,1009.70
2018-03-26T04:38:14.097Z,1009.75
2018-03-26T04:39:14.069Z,1009.70
2018-03-26T04:40:14.036Z,1009.73
2018-03-26T04:41:14.005Z,1009.67
2018-03-26T04:42:13.976Z,1009.71
2018-03-26T04:43:14.147Z,1009.74
2018-03-26T04:44:13.916Z,1009.71
2018-03-26T04:45:13.883Z,1009.72
2018-03-26T04:46:13.853Z,1009.76
2018-03-26T04:47:13.825Z,1009.74
2018-03-26T04:48:13.793Z,1009.76
2018-03-26T04:49:13.761Z,1009.76
2018-03-26T04:50:13.749Z,1009.79
2018-03-26T04:51:13.700Z,1009.84
2018-03-26T04:52:13.671Z,1009.76
2018-03-26T04:53:13.638Z,1009.81
2018-03-26T04:54:13.638Z,1009.82
2018-03-26T04:55:13.577Z,1009.81
2018-03-26T04:56:13.547Z,1009.82
2018-03-26T04:57:13.516Z,1009.85
2018-03-26T04:58:13.485Z,1009.87
2018-03-26T04:59:13.455Z,1009.85
2018-03-26T05:00:13.425Z,1009.87
2018-03-26T05:01:13.393Z,1009.89
2018-03-26T05:02:13.378Z,1009.91
2018-03-26T05:03:13.333Z,1009.94
2018-03-26T05:04:13.303Z,1009.94
2018-03-26T05:05:13.271Z,1009.93
2018-03-26T05:06:13.242Z,1009.97
2018-03-26T05:07:13.220Z,1009.90
2018-03-26T05:08:13.184Z,1009.93
2018-03-26T05:09:13.149Z,1009.92
2018-03-26T05:10:13.119Z,1009.92
2018-03-26T05:11:13.088Z,1009.95
2018-03-26T05:12:13.064Z,1009.96
2018-03-26T05:13:13.027Z,1009.97
2018-03-26T05:14:12.997Z,1009.99
2018-03-26T05:15:12.968Z,1009.99
2018-03-26T05:16:12.938Z,1010.03
2018-03-26T05:17:12.904Z,1010.01
2018-03-26T05:18:12.874Z,1010.05
2018-03-26T05:19:12.844Z,1010.05
2018-03-26T05:20:12.813Z,1010.06
2018-03-26T05:21:12.782Z,1010.06
2018-03-26T05:22:12.751Z,1010.05
2018-03-26T05:23:12.726Z,1010.07
2018-03-26T05:24:12.690Z,1010.02
2018-03-26T05:25:13.510Z,1010.01
2018-03-26T05:26:12.630Z,1010.05
2018-03-26T05:27:12.605Z,1010.11
2018-03-26T05:28:12.568Z,1010.11
2018-03-26T05:29:12.536Z,1010.13
2018-03-26T05:30:12.506Z,1010.11
2018-03-26T05:31:12.503Z,1010.14
2018-03-26T05:32:12.445Z,1010.23
2018-03-26T05:33:12.413Z,1010.17
2018-03-26T05:34:12.383Z,1010.24
2018-03-26T05:35:12.351Z,1010.25
2018-03-26T05:36:12.322Z,1010.21
2018-03-26T05:37:12.290Z,1010.24
2018-03-26T05:38:12.267Z,1010.25
2018-03-26T05:39:12.228Z,1010.30
2018-03-26T05:40:12.201Z,1010.29
2018-03-26T05:41:12.169Z,1010.33
2018-03-26T05:42:12.136Z,1010.31
2018-03-26T05:43:12.305Z,1010.34
2018-03-26T05:44:12.076Z,1010.37
2018-03-26T05:45:12.043Z,1010.38
2018-03-26T05:46:12.014Z,1010.39
2018-03-26T05:47:11.982Z,1010.38
2018-03-26T05:48:11.951Z,1010.38
2018-03-26T05:49:11.936Z,1010.42
2018-03-26T05:50:11.889Z,1010.43
2018-03-26T05:51:11.858Z,1010.43
2018-03-26T05:52:11.895Z,1010.42
2018-03-26T05:53:11.796Z,1010.43
2018-03-26T05:54:11.768Z,1010.45
2018-03-26T05:55:11.738Z,1010.46
2018-03-26T05:56:11.713Z,1010.45
2018-03-26T05:57:11.672Z,1010.46
2018-03-26T05:58:11.643Z,1010.52
2018-03-26T05:59:11.610Z,1010.52
2018-03-26T06:00:11.581Z,1010.58
2018-03-26T06:01:11.548Z,1010.57
2018-03-26T06:02:11.538Z,1010.61
2018-03-26T06:03:11.487Z,1010.61
2018-03-26T06:04:11.457Z,1010.59
2018-03-26T06:05:11.425Z,1010.63
2018-03-26T06:06:11.398Z,1010.65
2018-03-26T06:07:11.363Z,1010.67
2018-03-26T06:08:11.336Z,1010.74
2018-03-26T06:09:11.302Z,1010.73
2018-03-26T06:10:11.270Z,1010.73
2018-03-26T06:11:11.240Z,1010.75
2018-03-26T06:12:11.213Z,1010.77
2018-03-26T06:13:11.178Z,1010.76
2018-03-26T06:14:11.149Z,1010.79
2018-03-26T06:15:11.119Z,1010.76
2018-03-26T06:16:11.087Z,1010.75
2018-03-26T06:17:11.062Z,1010.76
2018-03-26T06:18:11.023Z,1010.74
2018-03-26T06:19:10.993Z,1010.80
2018-03-26T06:20:10.961Z,1010.75
2018-03-26T06:21:10.929Z,1010.80
2018-03-26T06:22:10.898Z,1010.86
2018-03-26T06:23:10.868Z,1010.83
2018-03-26T06:24:10.837Z,1010.93
2018-03-26T06:25:10.806Z,1010.91
2018-03-26T06:26:10.774Z,1010.92
2018-03-26T06:27:10.745Z,1010.93
2018-03-26T06:28:10.713Z,1010.96
2018-03-26T06:29:10.680Z,1010.92
2018-03-26T06:30:10.650Z,1011.02
2018-03-26T06:31:10.620Z,1011.00
2018-03-26T06:32:10.588Z,1010.94
2018-03-26T06:33:10.556Z,1011.01
2018-03-26T06:34:10.525Z,1011.02
2018-03-26T06:35:10.495Z,1011.06
2018-03-26T06:36:10.464Z,1011.05
2018-03-26T06:37:10.437Z,1011.03
2018-03-26T06:38:10.401Z,1011.08
2018-03-26T06:39:10.370Z,1011.13
2018-03-26T06:40:10.355Z,1011.05
2018-03-26T06:41:10.308Z,1011.10
2018-03-26T06:42:10.277Z,1011.13
2018-03-26T06:43:10.246Z,1011.14
2018-03-26T06:44:10.245Z,1011.11
2018-03-26T06:45:10.185Z,1011.13
2018-03-26T06:46:10.153Z,1011.11
2018-03-26T06:47:10.122Z,1011.18
2018-03-26T06:48:10.093Z,1011.17
2018-03-26T06:49:10.060Z,1011.20
2018-03-26T06:50:10.029Z,1011.24
2018-03-26T06:51:09.998Z,1011.23
2018-03-26T06:52:09.968Z,1011.27
2018-03-26T06:53:09.936Z,1011.29
2018-03-26T06:54:09.905Z,1011.29
2018-03-26T06:55:09.878Z,1011.22
2018-03-26T06:56:09.844Z,1011.25
2018-03-26T06:57:09.813Z,1011.22
2018-03-26T06:58:09.785Z,1011.26
2018-03-26T06:59:09.751Z,1011.31
2018-03-26T07:00:09.727Z,1011.31
2018-03-26T07:01:09.694Z,1011.33
2018-03-26T07:02:09.658Z,1011.25
2018-03-26T07:03:09.628Z,1011.29
2018-03-26T07:04:09.601Z,1011.32
2018-03-26T07:05:09.566Z,1011.31
2018-03-26T07:06:09.536Z,1011.35
2018-03-26T07:07:09.505Z,1011.36
2018-03-26T07:08:09.474Z,1011.35
2018-03-26T07:09:09.445Z,1011.29
2018-03-26T07:10:09.411Z,1011.35
2018-03-26T07:11:09.382Z,1011.33
2018-03-26T07:12:09.352Z,1011.40
2018-03-26T07:13:09.321Z,1011.42
2018-03-26T07:14:09.306Z,1011.37
2018-03-26T07:15:09.258Z,1011.43
2018-03-26T07:16:09.231Z,1011.45
2018-03-26T07:17:09.196Z,1011.45
2018-03-26T07:18:09.167Z,1011.44
2018-03-26T07:19:09.135Z,1011.46
2018-03-26T07:20:09.106Z,1011.46
2018-03-26T07:21:09.073Z,1011.56
2018-03-26T07:22:09.043Z,1011.57
2018-03-26T07:23:09.018Z,1011.53
2018-03-26T07:24:08.983Z,1011.52
2018-03-26T07:25:08.953Z,1011.52
2018-03-26T07:26:08.920Z,1011.49
2018-03-26T07:27:08.890Z,1011.50
2018-03-26T07:28:08.859Z,1011.52
2018-03-26T07:29:08.829Z,1011.53
2018-03-26T07:30:08.797Z,1011.49
2018-03-26T07:31:08.766Z,1011.55
2018-03-26T07:32:08.737Z,1011.50
2018-03-26T07:33:08.706Z,1011.47
2018-03-26T07:34:08.674Z,1011.44
2018-03-26T07:35:08.644Z,1011.49
2018-03-26T07:36:08.614Z,1011.51
2018-03-26T07:37:08.583Z,1011.52
2018-03-26T07:38:08.553Z,1011.52
2018-03-26T07:39:08.523Z,1011.52
2018-03-26T07:40:08.493Z,1011.60
2018-03-26T07:41:08.472Z,1011.63
2018-03-26T07:42:08.436Z,1011.61
2018-03-26T07:43:08.401Z,1011.58
2018-03-26T07:44:08.371Z,1011.59
2018-03-26T07:45:08.340Z,1011.62
2018-03-26T07:46:08.310Z,1011.62
2018-03-26T07:47:08.280Z,1011.67
2018-03-26T07:48:08.250Z,1011.69
2018-03-26T07:49:08.219Z,1011.73
2018-03-26T07:50:08.196Z,1011.75
2018-03-26T07:51:08.163Z,1011.79
2018-03-26T07:52:08.382Z,1011.74
2018-03-26T07:53:08.104Z,1011.80
2018-03-26T07:54:08.069Z,1011.83
2018-03-26T07:55:08.057Z,1011.87
2018-03-26T07:56:08.033Z,1011.82
2018-03-26T07:57:07.979Z,1011.88
2018-03-26T07:58:07.949Z,1011.89
2018-03-26T07:59:07.919Z,1011.87
2018-03-26T08:00:07.900Z,1011.83
2018-03-26T08:01:07.860Z,1011.85
2018-03-26T08:02:07.829Z,1011.88
2018-03-26T08:03:07.799Z,1011.86
2018-03-26T08:04:07.769Z,1011.90
2018-03-26T08:05:07.760Z,1011.92
2018-03-26T08:06:07.727Z,1011.88
2018-03-26T08:07:07.680Z,1011.85
2018-03-26T08:08:07.649Z,1011.88
2018-03-26T08:09:07.620Z,1011.88
2018-03-26T08:10:07.589Z,1011.93
2018-03-26T08:11:07.559Z,1011.91
2018-03-26T08:12:07.530Z,1011.98
2018-03-26T08:13:07.499Z,1011.91
2018-03-26T08:14:07.469Z,1011.94
2018-03-26T08:15:07.439Z,1011.92
2018-03-26T08:16:07.436Z,1011.98
2018-03-26T08:17:07.481Z,1012.01
2018-03-26T08:18:07.351Z,1012.03
2018-03-26T08:19:07.331Z,1012.04
2018-03-26T08:20:07.292Z,1011.98
2018-03-26T08:21:07.261Z,1012.00
2018-03-26T08:22:07.244Z,1011.99
2018-03-26T08:23:07.206Z,1012.05
2018-03-26T08:24:07.173Z,1012.03
2018-03-26T08:25:07.146Z,1012.01
2018-03-26T08:26:07.121Z,1011.99
2018-03-26T08:27:07.082Z,1011.99
2018-03-26T08:28:07.058Z,1011.98
2018-03-26T08:29:07.023Z,1011.99
2018-03-26T08:30:06.995Z,1011.98
2018-03-26T08:31:06.972Z,1012.04
2018-03-26T08:32:06.934Z,1012.10
2018-03-26T08:33:06.956Z,1012.05
2018-03-26T08:34:06.876Z,1012.10
2018-03-26T08:35:06.862Z,1012.18
2018-03-26T08:36:06.820Z,1012.06
2018-03-26T08:37:06.785Z,1012.11
2018-03-26T08:38:06.761Z,1012.23
2018-03-26T08:39:06.727Z,1012.19
2018-03-26T08:40:06.699Z,1012.21
2018-03-26T08:41:06.685Z,1012.19
2018-03-26T08:42:06.638Z,1012.21
2018-03-26T08:43:06.608Z,1012.20
2018-03-26T08:44:06.579Z,1012.21
2018-03-26T08:45:06.553Z,1012.22
2018-03-26T08:46:06.520Z,1012.24
2018-03-26T08:47:06.489Z,1012.25
2018-03-26T08:48:06.459Z,1012.23
2018-03-26T08:49:06.430Z,1012.28
2018-03-26T08:50:06.515Z,1012.26
2018-03-26T08:51:06.425Z,1012.23
2018-03-26T08:52:06.341Z,1012.25
2018-03-26T08:53:06.327Z,1012.14
2018-03-26T08:54:06.281Z,1012.29
2018-03-26T08:55:06.253Z,1012.26
2018-03-26T08:56:06.222Z,1012.28
2018-03-26T08:57:06.194Z,1012.24
2018-03-26T08:58:06.163Z,1012.25
2018-03-26T08:59:06.174Z,1012.22
2018-03-26T09:00:06.104Z,1012.26
2018-03-26T09:01:06.074Z,1012.30
2018-03-26T09:02:06.053Z,1012.28
2018-03-26T09:03:06.018Z,1012.27
2018-03-26T09:04:05.986Z,1012.29
2018-03-26T09:05:05.955Z,1012.29
2018-03-26T09:06:05.925Z,1012.30
2018-03-26T09:07:05.897Z,1012.28
2018-03-26T09:08:05.869Z,1012.26
2018-03-26T09:09:05.837Z,1012.27
2018-03-26T09:10:05.814Z,1012.33
2018-03-26T09:11:05.781Z,1012.31
2018-03-26T09:12:05.766Z,1012.42
2018-03-26T09:13:05.725Z,1012.39
2018-03-26T09:14:05.690Z,1012.38
2018-03-26T09:15:05.679Z,1012.37
2018-03-26T09:16:05.641Z,1012.40
2018-03-26T09:17:05.621Z,1012.45
2018-03-26T09:18:05.581Z,1012.45
2018-03-26T09:19:05.558Z,1012.43
2018-03-26T09:20:05.515Z,1012.52
2018-03-26T09:21:05.485Z,1012.52
2018-03-26T09:22:05.456Z,1012.53
2018-03-26T09:23:05.426Z,1012.57
2018-03-26T09:24:05.397Z,1012.56
2018-03-26T09:25:05.438Z,1012.60
2018-03-26T09:26:05.352Z,1012.55
2018-03-26T09:27:05.316Z,1012.52
2018-03-26T09:28:05.336Z,1012.55
2018-03-26T09:29:05.257Z,1012.54
2018-03-26T09:30:05.220Z,1012.45
2018-03-26T09:31:05.191Z,1012.52
2018-03-26T09:32:05.162Z,1012.53
2018-03-26T09:33:05.136Z,1012.48
2018-03-26T09:34:05.103Z,1012.53
2018-03-26T09:35:05.080Z,1012.55
2018-03-26T09:36:05.044Z,1012.54
2018-03-26T09:37:05.014Z,1012.54
2018-03-26T09:38:04.993Z,1012.59
2018-03-26T09:39:04.983Z,1012.54
2018-03-26T09:40:04.943Z,1012.56
2018-03-26T09:41:04.916Z,1012.59
2018-03-26T09:42:04.895Z,1012.58
2018-03-26T09:43:04.922Z,1012.55
2018-03-26T09:44:04.837Z,1012.58
2018-03-26T09:45:04.795Z,1012.58
2018-03-26T09:46:04.749Z,1012.59
2018-03-26T09:47:04.719Z,1012.61
2018-03-26T09:48:04.718Z,1012.64
2018-03-26T09:49:04.660Z,1012.58
2018-03-26T09:50:04.643Z,1012.56
2018-03-26T09:51:04.602Z,1012.59
2018-03-26T09:52:04.581Z,1012.55
2018-03-26T09:53:04.542Z,1012.67
2018-03-26T09:54:04.513Z,1012.62
2018-03-26T09:55:04.485Z,1012.64
2018-03-26T09:56:04.457Z,1012.49
2018-03-26T09:57:04.425Z,1012.68
2018-03-26T09:58:04.395Z,1012.69
2018-03-26T09:59:04.366Z,1012.74
2018-03-26T10:00:04.350Z,1012.73
2018-03-26T10:01:04.309Z,1012.75
2018-03-26T10:02:04.285Z,1012.71
2018-03-26T10:03:04.258Z,1012.70
2018-03-26T10:04:04.223Z,1012.69
2018-03-26T10:05:04.189Z,1012.72
2018-03-26T10:06:04.172Z,1012.71
2018-03-26T10:07:04.131Z,1012.72
2018-03-26T10:08:04.102Z,1012.73
2018-03-26T10:09:04.072Z,1012.69
2018-03-26T10:10:04.042Z,1012.73
2018-03-26T10:11:04.014Z,1012.70
2018-03-26T10:12:03.984Z,1012.71
2018-03-26T10:13:03.955Z,1012.73
2018-03-26T10:14:03.926Z,1012.77
2018-03-26T10:15:03.905Z,1012.69
2018-03-26T10:16:03.872Z,1012.72
2018-03-26T10:17:03.841Z,1012.76
2018-03-26T10:18:03.809Z,1012.78
2018-03-26T10:19:03.784Z,1012.79
2018-03-26T10:20:03.754Z,1012.84
2018-03-26T10:21:03.723Z,1012.83
2018-03-26T10:22:03.694Z,1012.75
2018-03-26T10:23:03.663Z,1012.83
2018-03-26T10:24:03.641Z,1012.80
2018-03-26T10:25:03.604Z,1012.89
2018-03-26T10:26:03.579Z,1012.86
2018-03-26T10:27:03.547Z,1012.88
2018-03-26T10:28:03.522Z,1012.86
2018-03-26T10:29:03.487Z,1012.87
2018-03-26T10:30:03.462Z,1012.91
2018-03-26T10:31:03.430Z,1012.93
2018-03-26T10:32:03.402Z,1012.92
2018-03-26T10:33:03.372Z,1012.92
2018-03-26T10:34:03.342Z,1012.91
2018-03-26T10:35:03.315Z,1012.80
2018-03-26T10:36:03.289Z,1012.88
2018-03-26T10:37:03.255Z,1012.88
2018-03-26T10:38:03.228Z,1012.87
2018-03-26T10:39:03.197Z,1012.99
2018-03-26T10:40:03.171Z,1013.01
2018-03-26T10:41:03.139Z,1012.98
2018-03-26T10:42:03.109Z,1012.94
2018-03-26T10:43:03.081Z,1012.98
2018-03-26T10:44:03.054Z,1012.97
2018-03-26T10:45:03.023Z,1012.95
2018-03-26T10:46:03.013Z,1012.88
2018-03-26T10:47:02.965Z,1012.98
2018-03-26T10:48:02.943Z,1012.95
2018-03-26T10:49:02.909Z,1012.90
2018-03-26T10:50:02.883Z,1012.89
2018-03-26T10:51:02.910Z,1012.88
2018-03-26T10:52:02.830Z,1012.97
2018-03-26T10:53:02.792Z,1012.96
2018-03-26T10:54:02.766Z,1012.94
2018-03-26T10:55:02.735Z,1012.93
2018-03-26T10:56:02.710Z,1012.92
2018-03-26T10:57:02.677Z,1012.89
2018-03-26T10:58:02.657Z,1012.92
2018-03-26T10:59:02.619Z,1012.98
2018-03-26T11:00:02.591Z,1012.99
2018-03-26T11:01:02.566Z,1012.96
2018-03-26T11:02:02.533Z,1012.97
2018-03-26T11:03:02.504Z,1013.02
2018-03-26T11:04:02.476Z,1013.01
2018-03-26T11:05:02.446Z,1012.93
2018-03-26T11:06:02.419Z,1013.01
2018-03-26T11:07:02.388Z,1012.98
2018-03-26T11:08:02.360Z,1012.98
2018-03-26T11:09:02.332Z,1013.08
2018-03-26T11:10:02.309Z,1013.05
2018-03-26T11:11:02.295Z,1013.02
2018-03-26T11:12:02.254Z,1013.03
2018-03-26T11:13:02.215Z,1013.03
2018-03-26T11:14:02.198Z,1013.08
2018-03-26T11:15:02.167Z,1013.01
2018-03-26T11:16:02.132Z,1013.03
2018-03-26T11:17:02.101Z,1013.04
2018-03-26T11:18:02.072Z,1013.06
2018-03-26T11:19:02.045Z,1013.04
2018-03-26T11:20:02.015Z,1013.04
2018-03-26T11:21:01.985Z,1013.09
2018-03-26T11:22:01.957Z,1013.05
2018-03-26T11:23:01.930Z,1013.09
2018-03-26T11:24:01.900Z,1013.11
2018-03-26T11:25:01.874Z,1013.19
2018-03-26T11:26:01.844Z,1013.16
2018-03-26T11:27:01.814Z,1013.14
2018-03-26T11:28:01.839Z,1013.16
2018-03-26T11:29:01.756Z,1013.18
2018-03-26T11:30:01.728Z,1013.09
2018-03-26T11:31:01.701Z,1013.14
2018-03-26T11:32:01.671Z,1013.15
2018-03-26T11:33:01.641Z,1013.11
2018-03-26T11:34:01.617Z,1013.13
2018-03-26T11:35:01.585Z,1013.15
2018-03-26T11:36:01.567Z,1013.21
2018-03-26T11:37:01.526Z,1013.28
2018-03-26T11:38:01.497Z,1013.33
2018-03-26T11:39:01.470Z,1013.34
2018-03-26T11:40:01.441Z,1013.32
2018-03-26T11:41:01.412Z,1013.35
2018-03-26T11:42:01.383Z,1013.29
2018-03-26T11:43:01.364Z,1013.31
2018-03-26T11:44:01.328Z,1013.22
2018-03-26T11:45:01.505Z,1013.29
2018-03-26T11:46:01.312Z,1013.30
2018-03-26T11:47:01.252Z,1013.35
2018-03-26T11:48:01.214Z,1013.30
2018-03-26T11:49:01.226Z,1013.29
2018-03-26T11:50:01.158Z,1013.26
2018-03-26T11:51:01.172Z,1013.27
2018-03-26T11:52:01.129Z,1013.25
2018-03-26T11:53:01.074Z,1013.26
2018-03-26T11:54:01.069Z,1013.27
2018-03-26T11:55:01.020Z,1013.26
2018-03-26T11:56:01.002Z,1013.21
2018-03-26T11:57:00.968Z,1013.23
2018-03-26T11:58:00.967Z,1013.19
2018-03-26T11:59:00.928Z,1013.18
2018-03-26T12:00:00.915Z,1013.20
2018-03-26T12:01:00.865Z,1013.16
2018-03-26T12:02:00.832Z,1013.19
2018-03-26T12:03:00.807Z,1013.16
2018-03-26T12:04:00.774Z,1013.21
2018-03-26T12:05:00.746Z,1013.20